createdAt,value
2023-04-03T00:01:05.000Z,0
2023-04-03T00:02:21.000Z,0
2023-04-03T00:03:37.000Z,0
2023-04-03T00:04:53.000Z,0
2023-04-03T00:06:09.000Z,0
2023-04-03T00:07:25.000Z,0
2023-04-03T00:08:40.000Z,0
2023-04-03T00:09:56.000Z,0
2023-04-03T00:11:12.000Z,0
2023-04-03T00:12:28.000Z,0
2023-04-03T00:13:43.000Z,0
2023-04-03T00:14:58.000Z,0
2023-04-03T00:17:30.000Z,0
2023-04-03T00:18:47.000Z,0
2023-04-03T00:20:03.000Z,0
2023-04-03T00:22:35.000Z,0
2023-04-03T00:23:51.000Z,0
2023-04-03T00:25:07.000Z,0
2023-04-03T00:26:23.000Z,0
2023-04-03T00:27:40.000Z,0
2023-04-03T00:28:56.000Z,0
2023-04-03T00:30:11.000Z,0
2023-04-03T00:31:26.000Z,0
2023-04-03T00:32:42.000Z,0
2023-04-03T00:33:58.000Z,0
2023-04-03T00:35:14.000Z,0
2023-04-03T00:36:30.000Z,0
2023-04-03T00:37:47.000Z,0
2023-04-03T00:39:03.000Z,0
2023-04-03T00:40:19.000Z,0
2023-04-03T00:41:35.000Z,0
2023-04-03T00:42:51.000Z,0
2023-04-03T00:44:06.000Z,0
2023-04-03T00:45:21.000Z,0
2023-04-03T00:46:38.000Z,0
2023-04-03T00:47:54.000Z,0
2023-04-03T00:49:10.000Z,0
2023-04-03T00:50:26.000Z,0
2023-04-03T00:51:42.000Z,0
2023-04-03T00:52:58.000Z,0
2023-04-03T00:54:14.000Z,0
2023-04-03T00:55:31.000Z,0
2023-04-03T00:56:47.000Z,0
2023-04-03T00:58:03.000Z,0
2023-04-03T00:59:19.000Z,0
2023-04-03T01:00:35.000Z,0
2023-04-03T01:01:50.000Z,0
2023-04-03T01:03:06.000Z,0
2023-04-03T01:04:22.000Z,0
2023-04-03T01:05:39.000Z,0
2023-04-03T01:06:55.000Z,0
2023-04-03T01:08:11.000Z,0
2023-04-03T01:10:42.000Z,0
2023-04-03T01:11:57.000Z,0
2023-04-03T01:13:12.000Z,0
2023-04-03T01:15:45.000Z,0
2023-04-03T01:17:00.000Z,0
2023-04-03T01:18:15.000Z,0
2023-04-03T01:19:31.000Z,0
2023-04-03T01:20:47.000Z,0
2023-04-03T01:22:03.000Z,0
2023-04-03T01:23:20.000Z,0
2023-04-03T01:24:36.000Z,0
2023-04-03T01:25:52.000Z,0
2023-04-03T01:27:08.000Z,0
2023-04-03T01:28:24.000Z,0
2023-04-03T01:29:40.000Z,0
2023-04-03T01:30:56.000Z,0
2023-04-03T01:32:13.000Z,0
2023-04-03T01:33:29.000Z,0
2023-04-03T01:34:44.000Z,0
2023-04-03T01:36:00.000Z,0
2023-04-03T01:37:16.000Z,0
2023-04-03T01:38:32.000Z,0
2023-04-03T01:39:48.000Z,0
2023-04-03T01:41:04.000Z,0
2023-04-03T01:42:21.000Z,0
2023-04-03T01:43:36.000Z,0
2023-04-03T01:44:51.000Z,0
2023-04-03T01:46:07.000Z,0
2023-04-03T01:47:22.000Z,0
2023-04-03T01:48:37.000Z,0
2023-04-03T01:49:53.000Z,0
2023-04-03T01:51:10.000Z,0
2023-04-03T01:53:42.000Z,0
2023-04-03T01:54:58.000Z,0
2023-04-03T01:56:14.000Z,0
2023-04-03T01:57:30.000Z,0
2023-04-03T01:58:46.000Z,0
2023-04-03T02:00:03.000Z,0
2023-04-03T02:01:19.000Z,0
2023-04-03T02:02:35.000Z,0
2023-04-03T02:03:51.000Z,0
2023-04-03T02:05:06.000Z,0
2023-04-03T02:06:22.000Z,0
2023-04-03T02:07:38.000Z,0
2023-04-03T02:08:54.000Z,0
2023-04-03T02:10:11.000Z,0
2023-04-03T02:11:27.000Z,0
2023-04-03T02:12:43.000Z,0
2023-04-03T02:13:59.000Z,0
2023-04-03T02:15:14.000Z,0
2023-04-03T02:16:29.000Z,0
2023-04-03T02:17:45.000Z,0
2023-04-03T02:19:02.000Z,0
2023-04-03T02:20:17.000Z,0
2023-04-03T02:21:32.000Z,0
2023-04-03T02:22:48.000Z,0
2023-04-03T02:24:04.000Z,0
2023-04-03T02:25:20.000Z,0
2023-04-03T02:26:36.000Z,0
2023-04-03T02:27:53.000Z,0
2023-04-03T02:29:09.000Z,0
2023-04-03T02:30:25.000Z,0
2023-04-03T02:31:41.000Z,0
2023-04-03T02:32:57.000Z,0
2023-04-03T02:34:13.000Z,0
2023-04-03T02:35:29.000Z,0
2023-04-03T02:36:45.000Z,0
2023-04-03T02:38:01.000Z,0
2023-04-03T02:39:17.000Z,0
2023-04-03T02:40:33.000Z,0
2023-04-03T02:41:49.000Z,0
2023-04-03T02:43:05.000Z,0
2023-04-03T02:44:21.000Z,0
2023-04-03T02:45:37.000Z,0
2023-04-03T02:46:53.000Z,0
2023-04-03T02:48:08.000Z,0
2023-04-03T02:49:24.000Z,0
2023-04-03T02:50:39.000Z,0
2023-04-03T02:51:54.000Z,0
2023-04-03T02:53:10.000Z,0
2023-04-03T02:54:26.000Z,0
2023-04-03T02:55:43.000Z,0
2023-04-03T02:56:59.000Z,0
2023-04-03T02:58:15.000Z,0
2023-04-03T02:59:31.000Z,0
2023-04-03T03:00:47.000Z,0
2023-04-03T03:02:03.000Z,0
2023-04-03T03:03:19.000Z,0
2023-04-03T03:04:35.000Z,0
2023-04-03T03:05:52.000Z,0
2023-04-03T03:07:08.000Z,0
2023-04-03T03:08:23.000Z,0
2023-04-03T03:09:39.000Z,0
2023-04-03T03:10:55.000Z,0
2023-04-03T03:12:11.000Z,0
2023-04-03T03:13:27.000Z,0
2023-04-03T03:14:44.000Z,0
2023-04-03T03:16:00.000Z,0
2023-04-03T03:17:15.000Z,0
2023-04-03T03:18:30.000Z,0
2023-04-03T03:19:46.000Z,0
2023-04-03T03:21:02.000Z,0
2023-04-03T03:22:18.000Z,0
2023-04-03T03:23:34.000Z,0
2023-04-03T03:24:49.000Z,0
2023-04-03T03:26:05.000Z,0
2023-04-03T03:27:21.000Z,0
2023-04-03T03:28:37.000Z,0
2023-04-03T03:29:53.000Z,0
2023-04-03T03:31:09.000Z,0
2023-04-03T03:32:26.000Z,0
2023-04-03T03:33:42.000Z,0
2023-04-03T03:34:58.000Z,0
2023-04-03T03:36:14.000Z,0
2023-04-03T03:37:30.000Z,0
2023-04-03T03:40:02.000Z,0
2023-04-03T03:41:17.000Z,0
2023-04-03T03:42:34.000Z,0
2023-04-03T03:43:50.000Z,0
2023-04-03T03:45:06.000Z,0
2023-04-03T03:46:22.000Z,0
2023-04-03T03:47:38.000Z,0
2023-04-03T03:48:54.000Z,0
2023-04-03T03:50:10.000Z,0
2023-04-03T03:51:27.000Z,0
2023-04-03T03:52:43.000Z,0
2023-04-03T03:53:59.000Z,0
2023-04-03T03:55:15.000Z,0
2023-04-03T03:56:31.000Z,0
2023-04-03T03:57:46.000Z,0
2023-04-03T03:59:02.000Z,0
2023-04-03T04:00:18.000Z,0
2023-04-03T04:01:35.000Z,0
2023-04-03T04:02:51.000Z,0
2023-04-03T04:04:07.000Z,0
2023-04-03T04:05:23.000Z,0
2023-04-03T04:06:39.000Z,0
2023-04-03T04:07:55.000Z,0
2023-04-03T04:09:10.000Z,0
2023-04-03T04:10:26.000Z,0
2023-04-03T04:11:42.000Z,0
2023-04-03T04:12:58.000Z,0
2023-04-03T04:14:13.000Z,0
2023-04-03T04:15:28.000Z,0
2023-04-03T04:16:44.000Z,0
2023-04-03T04:18:00.000Z,0
2023-04-03T04:19:17.000Z,0
2023-04-03T04:20:33.000Z,0
2023-04-03T04:21:49.000Z,0
2023-04-03T04:23:05.000Z,0
2023-04-03T04:24:21.000Z,0
2023-04-03T04:25:37.000Z,0
2023-04-03T04:26:53.000Z,0
2023-04-03T04:28:09.000Z,0
2023-04-03T04:29:26.000Z,0
2023-04-03T04:30:42.000Z,0
2023-04-03T04:31:57.000Z,0
2023-04-03T04:33:13.000Z,0
2023-04-03T04:34:29.000Z,0
2023-04-03T04:35:45.000Z,4
2023-04-03T04:37:01.000Z,0
2023-04-03T04:38:18.000Z,4
2023-04-03T04:39:34.000Z,0
2023-04-03T04:40:49.000Z,0
2023-04-03T04:42:04.000Z,4
2023-04-03T04:43:20.000Z,4
2023-04-03T04:44:36.000Z,4
2023-04-03T04:45:51.000Z,8
2023-04-03T04:47:07.000Z,8
2023-04-03T04:48:23.000Z,8
2023-04-03T04:49:39.000Z,12
2023-04-03T04:50:55.000Z,16
2023-04-03T04:52:11.000Z,20
2023-04-03T04:53:27.000Z,20
2023-04-03T04:54:43.000Z,24
2023-04-03T04:55:59.000Z,36
2023-04-03T04:57:16.000Z,44
2023-04-03T04:58:32.000Z,56
2023-04-03T04:59:48.000Z,64
2023-04-03T05:01:04.000Z,68
2023-04-03T05:02:20.000Z,60
2023-04-03T05:03:35.000Z,72
2023-04-03T05:04:51.000Z,76
2023-04-03T05:06:08.000Z,92
2023-04-03T05:07:24.000Z,100
2023-04-03T05:08:40.000Z,132
2023-04-03T05:09:56.000Z,140
2023-04-03T05:11:12.000Z,132
2023-04-03T05:13:43.000Z,176
2023-04-03T05:14:59.000Z,180
2023-04-03T05:16:14.000Z,180
2023-04-03T05:17:29.000Z,180
2023-04-03T05:18:44.000Z,220
2023-04-03T05:20:00.000Z,224
2023-04-03T05:21:16.000Z,208
2023-04-03T05:22:32.000Z,180
2023-04-03T05:23:49.000Z,212
2023-04-03T05:25:05.000Z,264
2023-04-03T05:26:20.000Z,248
2023-04-03T05:27:36.000Z,272
2023-04-03T05:28:52.000Z,232
2023-04-03T05:30:08.000Z,240
2023-04-03T05:31:24.000Z,264
2023-04-03T05:33:57.000Z,396
2023-04-03T05:35:13.000Z,388
2023-04-03T05:36:29.000Z,364
2023-04-03T05:37:45.000Z,412
2023-04-03T05:39:01.000Z,464
2023-04-03T05:40:17.000Z,420
2023-04-03T05:41:33.000Z,468
2023-04-03T05:42:49.000Z,472
2023-04-03T05:44:05.000Z,384
2023-04-03T05:45:20.000Z,404
2023-04-03T05:46:35.000Z,520
2023-04-03T05:47:50.000Z,496
2023-04-03T05:49:05.000Z,488
2023-04-03T05:50:21.000Z,424
2023-04-03T05:51:38.000Z,512
2023-04-03T05:52:54.000Z,536
2023-04-03T05:54:10.000Z,656
2023-04-03T05:55:26.000Z,624
2023-04-03T05:56:42.000Z,660
2023-04-03T05:57:58.000Z,656
2023-04-03T05:59:14.000Z,668
2023-04-03T06:00:30.000Z,596
2023-04-03T06:01:47.000Z,488
2023-04-03T06:04:19.000Z,496
2023-04-03T06:05:34.000Z,596
2023-04-03T06:06:50.000Z,696
2023-04-03T06:08:06.000Z,552
2023-04-03T06:09:22.000Z,724
2023-04-03T06:10:39.000Z,876
2023-04-03T06:11:55.000Z,792
2023-04-03T06:13:11.000Z,800
2023-04-03T06:14:27.000Z,804
2023-04-03T06:15:42.000Z,984
2023-04-03T06:16:57.000Z,976
2023-04-03T06:18:13.000Z,1084
2023-04-03T06:19:29.000Z,1156
2023-04-03T06:20:44.000Z,1248
2023-04-03T06:22:00.000Z,1288
2023-04-03T06:23:16.000Z,1316
2023-04-03T06:24:32.000Z,1332
2023-04-03T06:25:48.000Z,1320
2023-04-03T06:27:04.000Z,1292
2023-04-03T06:28:20.000Z,1300
2023-04-03T06:29:37.000Z,1312
2023-04-03T06:30:53.000Z,1280
2023-04-03T06:32:09.000Z,1288
2023-04-03T06:33:25.000Z,1276
2023-04-03T06:34:41.000Z,1316
2023-04-03T06:35:57.000Z,1368
2023-04-03T06:37:12.000Z,1440
2023-04-03T06:38:29.000Z,1488
2023-04-03T06:39:45.000Z,1536
2023-04-03T06:41:01.000Z,1516
2023-04-03T06:42:17.000Z,1464
2023-04-03T06:43:33.000Z,1528
2023-04-03T06:44:49.000Z,1640
2023-04-03T06:46:04.000Z,1728
2023-04-03T06:47:20.000Z,1832
2023-04-03T06:48:35.000Z,1964
2023-04-03T06:49:50.000Z,2080
2023-04-03T06:51:06.000Z,2060
2023-04-03T06:52:22.000Z,1952
2023-04-03T06:53:38.000Z,1948
2023-04-03T06:56:11.000Z,1892
2023-04-03T06:57:27.000Z,1948
2023-04-03T06:58:43.000Z,2076
2023-04-03T06:59:59.000Z,2136
2023-04-03T07:01:15.000Z,2200
2023-04-03T07:02:31.000Z,2256
2023-04-03T07:03:47.000Z,2256
2023-04-03T07:05:03.000Z,2240
2023-04-03T07:06:19.000Z,2228
2023-04-03T07:07:35.000Z,2176
2023-04-03T07:08:51.000Z,2244
2023-04-03T07:10:07.000Z,2256
2023-04-03T07:11:23.000Z,2328
2023-04-03T07:12:39.000Z,2368
2023-04-03T07:13:55.000Z,2404
2023-04-03T07:15:12.000Z,2360
2023-04-03T07:16:27.000Z,2456
2023-04-03T07:17:42.000Z,2408
2023-04-03T07:18:57.000Z,2560
2023-04-03T07:20:12.000Z,2780
2023-04-03T07:21:28.000Z,2928
2023-04-03T07:22:44.000Z,3000
2023-04-03T07:24:01.000Z,3016
2023-04-03T07:25:17.000Z,3012
2023-04-03T07:26:33.000Z,2924
2023-04-03T07:27:49.000Z,3040
2023-04-03T07:29:05.000Z,3140
2023-04-03T07:30:21.000Z,3496
2023-04-03T07:31:37.000Z,3820
2023-04-03T07:32:53.000Z,4236
2023-04-03T07:34:10.000Z,4488
2023-04-03T07:35:26.000Z,4576
2023-04-03T07:36:41.000Z,4748
2023-04-03T07:37:57.000Z,4644
2023-04-03T07:39:13.000Z,4364
2023-04-03T07:40:29.000Z,4144
2023-04-03T07:41:45.000Z,4092
2023-04-03T07:43:02.000Z,4172
2023-04-03T07:44:18.000Z,4672
2023-04-03T07:45:33.000Z,5740
2023-04-03T07:46:48.000Z,6672
2023-04-03T07:48:03.000Z,7632
2023-04-03T07:49:18.000Z,9464
2023-04-03T07:50:34.000Z,11016
2023-04-03T07:51:51.000Z,11572
2023-04-03T07:53:07.000Z,11064
2023-04-03T07:54:23.000Z,10984
2023-04-03T07:55:39.000Z,11044
2023-04-03T07:56:55.000Z,10340
2023-04-03T07:58:11.000Z,10644
2023-04-03T07:59:27.000Z,11636
2023-04-03T08:00:43.000Z,10992
2023-04-03T08:02:00.000Z,9716
2023-04-03T08:03:16.000Z,9028
2023-04-03T08:04:32.000Z,10288
2023-04-03T08:05:47.000Z,9860
2023-04-03T08:07:03.000Z,9344
2023-04-03T08:08:19.000Z,9612
2023-04-03T08:09:35.000Z,10000
2023-04-03T08:10:52.000Z,9232
2023-04-03T08:13:24.312Z,9352
2023-04-03T08:14:40.000Z,9808
2023-04-03T08:15:55.000Z,9828
2023-04-03T08:17:10.000Z,9896
2023-04-03T08:18:25.000Z,9440
2023-04-03T08:19:41.000Z,9828
2023-04-03T08:20:57.000Z,9132
2023-04-03T08:22:13.000Z,10112
2023-04-03T08:23:29.000Z,9652
2023-04-03T08:24:45.000Z,8692
2023-04-03T08:26:01.000Z,8356
2023-04-03T08:27:17.000Z,7672
2023-04-03T08:28:33.000Z,8172
2023-04-03T08:29:50.000Z,8284
2023-04-03T08:31:06.000Z,9048
2023-04-03T08:32:22.000Z,9804
2023-04-03T08:33:38.000Z,11500
2023-04-03T08:34:54.000Z,11848
2023-04-03T08:36:09.000Z,11304
2023-04-03T08:37:25.000Z,10768
2023-04-03T08:38:42.000Z,9620
2023-04-03T08:39:58.000Z,9648
2023-04-03T08:41:14.000Z,9340
2023-04-03T08:42:30.000Z,9556
2023-04-03T08:43:46.000Z,9548
2023-04-03T08:45:01.000Z,15512
2023-04-03T08:46:16.000Z,15296
2023-04-03T08:47:32.000Z,15088
2023-04-03T08:48:47.000Z,15084
2023-04-03T08:50:03.000Z,13408
2023-04-03T08:51:19.000Z,12436
2023-04-03T08:52:35.000Z,11724
2023-04-03T08:53:51.000Z,10836
2023-04-03T08:55:07.000Z,10452
2023-04-03T08:56:23.000Z,8884
2023-04-03T08:57:40.000Z,8580
2023-04-03T08:58:56.000Z,10068
2023-04-03T09:00:12.000Z,10816
2023-04-03T09:01:28.000Z,10584
2023-04-03T09:02:44.000Z,10216
2023-04-03T09:04:00.000Z,9732
2023-04-03T09:05:15.000Z,8316
2023-04-03T09:06:32.000Z,7884
2023-04-03T09:07:48.000Z,8604
2023-04-03T09:09:04.000Z,7712
2023-04-03T09:10:20.000Z,6772
2023-04-03T09:11:36.000Z,6580
2023-04-03T09:12:52.000Z,7412
2023-04-03T09:14:07.000Z,8452
2023-04-03T09:15:23.000Z,9352
2023-04-03T09:16:39.000Z,10956
2023-04-03T09:17:54.000Z,10308
2023-04-03T09:19:09.000Z,9072
2023-04-03T09:20:25.000Z,8312
2023-04-03T09:21:41.000Z,8028
2023-04-03T09:22:57.000Z,8020
2023-04-03T09:24:14.000Z,7856
2023-04-03T09:25:30.000Z,9936
2023-04-03T09:26:46.000Z,14232
2023-04-03T09:28:02.000Z,12844
2023-04-03T09:29:18.000Z,10748
2023-04-03T09:30:34.000Z,9288
2023-04-03T09:31:50.000Z,9604
2023-04-03T09:33:06.000Z,8684
2023-04-03T09:34:23.000Z,8060
2023-04-03T09:35:38.000Z,7484
2023-04-03T09:36:54.000Z,7464
2023-04-03T09:38:10.000Z,7756
2023-04-03T09:39:26.000Z,7804
2023-04-03T09:40:41.000Z,6768
2023-04-03T09:41:57.000Z,6372
2023-04-03T09:43:14.000Z,7728
2023-04-03T09:44:29.000Z,9076
2023-04-03T09:47:00.000Z,10756
2023-04-03T09:48:16.000Z,11460
2023-04-03T09:49:31.000Z,10992
2023-04-03T09:50:46.000Z,12040
2023-04-03T09:52:03.000Z,11824
2023-04-03T09:53:19.000Z,12572
2023-04-03T09:54:35.000Z,11192
2023-04-03T09:55:51.000Z,9972
2023-04-03T09:57:07.000Z,9072
2023-04-03T09:58:23.000Z,8344
2023-04-03T09:59:39.000Z,8776
2023-04-03T10:00:55.000Z,8488
2023-04-03T10:02:12.000Z,8104
2023-04-03T10:03:28.000Z,7320
2023-04-03T10:04:44.000Z,7060
2023-04-03T10:06:00.000Z,6784
2023-04-03T10:07:15.000Z,7276
2023-04-03T10:08:31.000Z,7512
2023-04-03T10:09:47.000Z,7184
2023-04-03T10:11:04.000Z,6712
2023-04-03T10:12:20.000Z,8028
2023-04-03T10:13:36.000Z,9364
2023-04-03T10:14:52.000Z,10048
2023-04-03T10:16:07.000Z,12328
2023-04-03T10:17:22.000Z,13436
2023-04-03T10:18:38.000Z,12620
2023-04-03T10:19:54.000Z,11252
2023-04-03T10:21:09.000Z,9808
2023-04-03T10:22:25.000Z,8872
2023-04-03T10:23:41.000Z,8144
2023-04-03T10:24:57.000Z,8308
2023-04-03T10:26:13.000Z,8236
2023-04-03T10:27:29.000Z,7996
2023-04-03T10:28:45.000Z,7364
2023-04-03T10:30:02.000Z,7204
2023-04-03T10:31:18.000Z,7380
2023-04-03T10:32:34.000Z,7320
2023-04-03T10:33:50.000Z,7340
2023-04-03T10:35:06.000Z,7004
2023-04-03T10:36:22.000Z,6908
2023-04-03T10:37:37.000Z,6272
2023-04-03T10:38:54.000Z,6332
2023-04-03T10:40:10.000Z,6720
2023-04-03T10:41:26.000Z,7340
2023-04-03T10:42:42.000Z,7552
2023-04-03T10:43:58.000Z,6572
2023-04-03T10:45:14.000Z,6392
2023-04-03T10:46:29.000Z,5584
2023-04-03T10:47:45.000Z,6348
2023-04-03T10:49:00.000Z,6424
2023-04-03T10:50:15.000Z,5760
2023-04-03T10:51:31.000Z,5392
2023-04-03T10:52:47.000Z,5628
2023-04-03T10:54:03.000Z,5928
2023-04-03T10:55:19.000Z,6572
2023-04-03T10:56:35.000Z,7460
2023-04-03T10:57:52.000Z,7184
2023-04-03T10:59:08.000Z,6924
2023-04-03T11:00:24.000Z,7476
2023-04-03T11:01:40.000Z,8460
2023-04-03T11:02:56.000Z,9940
2023-04-03T11:04:12.000Z,11128
2023-04-03T11:05:28.000Z,11988
2023-04-03T11:08:00.000Z,11748
2023-04-03T11:09:16.000Z,11304
2023-04-03T11:10:32.000Z,10472
2023-04-03T11:11:48.000Z,9580
2023-04-03T11:13:04.000Z,8720
2023-04-03T11:14:20.000Z,8020
2023-04-03T11:15:36.000Z,8112
2023-04-03T11:16:52.000Z,9372
2023-04-03T11:18:07.000Z,10356
2023-04-03T11:19:22.000Z,10068
2023-04-03T11:20:37.000Z,9124
2023-04-03T11:21:53.000Z,8484
2023-04-03T11:23:09.000Z,9016
2023-04-03T11:24:26.000Z,9404
2023-04-03T11:25:42.000Z,9692
2023-04-03T11:26:58.000Z,8912
2023-04-03T11:28:14.000Z,8028
2023-04-03T11:29:30.000Z,8524
2023-04-03T11:30:46.000Z,10552
2023-04-03T11:32:02.000Z,11468
2023-04-03T11:33:18.000Z,12992
2023-04-03T11:34:35.000Z,14948
2023-04-03T11:35:51.000Z,15628
2023-04-03T11:37:06.000Z,13892
2023-04-03T11:38:22.000Z,13584
2023-04-03T11:39:38.000Z,12288
2023-04-03T11:40:54.000Z,10808
2023-04-03T11:42:10.000Z,10380
2023-04-03T11:43:27.000Z,10008
2023-04-03T11:44:43.000Z,8916
2023-04-03T11:45:58.000Z,8324
2023-04-03T11:47:13.000Z,8024
2023-04-03T11:48:29.000Z,8304
2023-04-03T11:49:44.000Z,8800
2023-04-03T11:50:59.000Z,8544
2023-04-03T11:52:16.000Z,8028
2023-04-03T11:53:32.000Z,8656
2023-04-03T11:54:48.000Z,8712
2023-04-03T11:56:04.000Z,9308
2023-04-03T11:57:20.000Z,11100
2023-04-03T11:58:36.000Z,12448
2023-04-03T11:59:52.000Z,12500
2023-04-03T12:01:08.000Z,13280
2023-04-03T12:02:25.000Z,12952
2023-04-03T12:03:41.000Z,12568
2023-04-03T12:04:57.000Z,11824
2023-04-03T12:06:13.000Z,9388
2023-04-03T12:07:28.000Z,7904
2023-04-03T12:08:44.000Z,8144
2023-04-03T12:10:00.000Z,5452
2023-04-03T12:11:17.000Z,4964
2023-04-03T12:12:33.000Z,5432
2023-04-03T12:13:49.000Z,6200
2023-04-03T12:15:05.000Z,7392
2023-04-03T12:16:20.000Z,6924
2023-04-03T12:17:35.000Z,7008
2023-04-03T12:18:51.000Z,7904
2023-04-03T12:20:07.000Z,7588
2023-04-03T12:21:23.000Z,7968
2023-04-03T12:22:38.000Z,7568
2023-04-03T12:23:54.000Z,7908
2023-04-03T12:25:10.000Z,8616
2023-04-03T12:27:42.000Z,9004
2023-04-03T12:28:58.000Z,9224
2023-04-03T12:30:15.000Z,9552
2023-04-03T12:31:31.000Z,9856
2023-04-03T12:32:47.000Z,10476
2023-04-03T12:34:03.000Z,10868
2023-04-03T12:35:19.000Z,11148
2023-04-03T12:36:35.000Z,10656
2023-04-03T12:37:51.000Z,10700
2023-04-03T12:39:07.000Z,11156
2023-04-03T12:40:23.000Z,11840
2023-04-03T12:41:39.000Z,12036
2023-04-03T12:42:55.000Z,11188
2023-04-03T12:44:11.000Z,10380
2023-04-03T12:45:27.000Z,10108
2023-04-03T12:46:43.000Z,9640
2023-04-03T12:47:59.000Z,9336
2023-04-03T12:49:16.000Z,8764
2023-04-03T12:50:31.000Z,8524
2023-04-03T12:51:46.000Z,8188
2023-04-03T12:53:01.000Z,7156
2023-04-03T12:54:16.000Z,7728
2023-04-03T12:55:32.000Z,8768
2023-04-03T12:56:48.000Z,8784
2023-04-03T12:58:05.000Z,8276
2023-04-03T12:59:21.000Z,7680
2023-04-03T13:00:37.000Z,7748
2023-04-03T13:01:53.000Z,7904
2023-04-03T13:03:09.000Z,7616
2023-04-03T13:04:25.000Z,7444
2023-04-03T13:05:41.000Z,7488
2023-04-03T13:06:58.000Z,7632
2023-04-03T13:08:14.000Z,8116
2023-04-03T13:09:30.000Z,8196
2023-04-03T13:10:45.000Z,8208
2023-04-03T13:12:01.000Z,8536
2023-04-03T13:13:17.000Z,8972
2023-04-03T13:14:33.000Z,9424
2023-04-03T13:15:49.000Z,10264
2023-04-03T13:17:06.000Z,10976
2023-04-03T13:18:22.000Z,11452
2023-04-03T13:19:37.000Z,11276
2023-04-03T13:20:52.000Z,10516
2023-04-03T13:22:07.000Z,9876
2023-04-03T13:23:22.000Z,9012
2023-04-03T13:24:38.000Z,8412
2023-04-03T13:25:55.000Z,7916
2023-04-03T13:27:11.000Z,7576
2023-04-03T13:29:43.000Z,7708
2023-04-03T13:30:59.000Z,7884
2023-04-03T13:32:15.000Z,7280
2023-04-03T13:33:31.000Z,6592
2023-04-03T13:34:48.000Z,6624
2023-04-03T13:36:04.000Z,6852
2023-04-03T13:37:20.000Z,7564
2023-04-03T13:38:36.000Z,7952
2023-04-03T13:39:51.000Z,8140
2023-04-03T13:41:07.000Z,8624
2023-04-03T13:42:23.000Z,9632
2023-04-03T13:43:39.000Z,9656
2023-04-03T13:44:56.000Z,8972
2023-04-03T13:46:12.000Z,8112
2023-04-03T13:47:28.000Z,7268
2023-04-03T13:48:43.000Z,6496
2023-04-03T13:49:58.689Z,6272
2023-04-03T13:51:13.000Z,6372
2023-04-03T13:52:28.000Z,6552
2023-04-03T13:53:45.000Z,6684
2023-04-03T13:55:00.000Z,6612
2023-04-03T13:56:16.000Z,6596
2023-04-03T13:57:32.000Z,6384
2023-04-03T13:58:48.000Z,6076
2023-04-03T14:00:04.000Z,5692
2023-04-03T14:01:20.000Z,5364
2023-04-03T14:02:37.000Z,5156
2023-04-03T14:03:53.000Z,5404
2023-04-03T14:05:09.000Z,5360
2023-04-03T14:06:25.000Z,4840
2023-04-03T14:07:41.000Z,4356
2023-04-03T14:08:57.000Z,4484
2023-04-03T14:10:13.000Z,4500
2023-04-03T14:11:29.000Z,4236
2023-04-03T14:12:45.000Z,4668
2023-04-03T14:14:01.000Z,4916
2023-04-03T14:15:17.000Z,5196
2023-04-03T14:16:33.000Z,4732
2023-04-03T14:17:48.000Z,4688
2023-04-03T14:19:03.000Z,5024
2023-04-03T14:20:19.000Z,5420
2023-04-03T14:21:35.000Z,6040
2023-04-03T14:22:50.000Z,6616
2023-04-03T14:24:06.000Z,7036
2023-04-03T14:25:22.000Z,7472
2023-04-03T14:26:38.000Z,6964
2023-04-03T14:27:54.000Z,5936
2023-04-03T14:29:10.000Z,5516
2023-04-03T14:30:27.000Z,5564
2023-04-03T14:31:43.000Z,5172
2023-04-03T14:32:59.000Z,5392
2023-04-03T14:34:15.000Z,5564
2023-04-03T14:35:31.000Z,5868
2023-04-03T14:36:47.000Z,5760
2023-04-03T14:38:03.000Z,5268
2023-04-03T14:39:19.000Z,4976
2023-04-03T14:40:35.000Z,4964
2023-04-03T14:41:51.000Z,5372
2023-04-03T14:43:07.000Z,5672
2023-04-03T14:44:23.000Z,5912
2023-04-03T14:45:39.000Z,5884
2023-04-03T14:48:11.000Z,6092
2023-04-03T14:49:27.000Z,6256
2023-04-03T14:50:42.000Z,6500
2023-04-03T14:51:58.000Z,6408
2023-04-03T14:53:14.000Z,5740
2023-04-03T14:54:30.000Z,5436
2023-04-03T14:55:46.000Z,4992
2023-04-03T14:57:02.000Z,4480
2023-04-03T14:58:19.000Z,4200
2023-04-03T14:59:35.000Z,4076
2023-04-03T15:00:51.000Z,4088
2023-04-03T15:02:07.000Z,4116
2023-04-03T15:03:23.000Z,4020
2023-04-03T15:04:39.000Z,3948
2023-04-03T15:05:55.000Z,4100
2023-04-03T15:07:10.000Z,4260
2023-04-03T15:08:27.000Z,4620
2023-04-03T15:09:43.000Z,4888
2023-04-03T15:10:59.000Z,4728
2023-04-03T15:12:15.000Z,4556
2023-04-03T15:13:31.000Z,4500
2023-04-03T15:14:47.000Z,4656
2023-04-03T15:16:02.000Z,4928
2023-04-03T15:17:18.000Z,5084
2023-04-03T15:18:33.000Z,5028
2023-04-03T15:19:48.000Z,4804
2023-04-03T15:21:04.000Z,4656
2023-04-03T15:22:19.000Z,4440
2023-04-03T15:23:35.000Z,3984
2023-04-03T15:24:50.000Z,3772
2023-04-03T15:26:06.000Z,3536
2023-04-03T15:27:22.000Z,3596
2023-04-03T15:28:39.000Z,3220
2023-04-03T15:29:55.000Z,3192
2023-04-03T15:31:11.000Z,3112
2023-04-03T15:32:27.000Z,3036
2023-04-03T15:33:43.000Z,3160
2023-04-03T15:35:00.000Z,3096
2023-04-03T15:36:16.000Z,3080
2023-04-03T15:37:32.000Z,3004
2023-04-03T15:38:48.000Z,3232
2023-04-03T15:40:04.000Z,3192
2023-04-03T15:41:19.000Z,3000
2023-04-03T15:42:35.000Z,2824
2023-04-03T15:43:51.000Z,2776
2023-04-03T15:45:08.000Z,2636
2023-04-03T15:46:24.000Z,2512
2023-04-03T15:47:40.000Z,2452
2023-04-03T15:48:56.000Z,2612
2023-04-03T15:50:11.000Z,2692
2023-04-03T15:51:26.000Z,2696
2023-04-03T15:52:41.000Z,2872
2023-04-03T15:53:57.000Z,2712
2023-04-03T15:55:13.000Z,2396
2023-04-03T15:56:29.000Z,2348
2023-04-03T15:57:45.000Z,2460
2023-04-03T15:59:01.000Z,2864
2023-04-03T16:00:17.000Z,3264
2023-04-03T16:01:33.000Z,3468
2023-04-03T16:02:50.000Z,2980
2023-04-03T16:04:06.000Z,2552
2023-04-03T16:05:22.000Z,2408
2023-04-03T16:06:38.000Z,2200
2023-04-03T16:07:54.000Z,1984
2023-04-03T16:09:10.000Z,1820
2023-04-03T16:10:25.000Z,1780
2023-04-03T16:11:41.000Z,1712
2023-04-03T16:12:58.000Z,1732
2023-04-03T16:14:14.000Z,1612
2023-04-03T16:15:30.000Z,1724
2023-04-03T16:16:46.000Z,2024
2023-04-03T16:18:02.000Z,2512
2023-04-03T16:19:17.000Z,2776
2023-04-03T16:20:32.000Z,2764
2023-04-03T16:21:49.000Z,2412
2023-04-03T16:23:04.000Z,2184
2023-04-03T16:24:19.000Z,2164
2023-04-03T16:25:35.000Z,2228
2023-04-03T16:26:51.000Z,1988
2023-04-03T16:28:07.000Z,1844
2023-04-03T16:29:23.000Z,2008
2023-04-03T16:30:40.000Z,2340
2023-04-03T16:31:56.000Z,2536
2023-04-03T16:33:12.000Z,2504
2023-04-03T16:34:28.000Z,2472
2023-04-03T16:35:44.000Z,2440
2023-04-03T16:37:00.000Z,2416
2023-04-03T16:38:16.000Z,2096
2023-04-03T16:39:32.000Z,1780
2023-04-03T16:40:48.000Z,1596
2023-04-03T16:42:04.000Z,1492
2023-04-03T16:43:20.000Z,1448
2023-04-03T16:44:36.000Z,1384
2023-04-03T16:45:52.000Z,1460
2023-04-03T16:47:08.000Z,1512
2023-04-03T16:48:24.000Z,1512
2023-04-03T16:49:40.000Z,1608
2023-04-03T16:50:55.000Z,1608
2023-04-03T16:52:11.000Z,1440
2023-04-03T16:53:26.000Z,1296
2023-04-03T16:54:41.000Z,1200
2023-04-03T16:55:57.000Z,1068
2023-04-03T16:57:13.000Z,996
2023-04-03T16:58:30.000Z,1036
2023-04-03T16:59:46.000Z,940
2023-04-03T17:01:02.000Z,864
2023-04-03T17:02:18.000Z,752
2023-04-03T17:03:34.000Z,684
2023-04-03T17:04:50.000Z,772
2023-04-03T17:06:06.000Z,736
2023-04-03T17:07:23.000Z,664
2023-04-03T17:08:39.000Z,616
2023-04-03T17:09:55.000Z,604
2023-04-03T17:11:11.000Z,576
2023-04-03T17:12:26.000Z,584
2023-04-03T17:13:42.000Z,580
2023-04-03T17:14:58.000Z,664
2023-04-03T17:16:14.000Z,736
2023-04-03T17:17:31.000Z,876
2023-04-03T17:18:47.000Z,944
2023-04-03T17:20:02.000Z,1000
2023-04-03T17:21:18.000Z,976
2023-04-03T17:22:33.000Z,968
2023-04-03T17:23:49.000Z,984
2023-04-03T17:25:05.000Z,880
2023-04-03T17:26:22.000Z,748
2023-04-03T17:27:38.000Z,644
2023-04-03T17:28:54.000Z,600
2023-04-03T17:30:10.000Z,548
2023-04-03T17:31:26.000Z,464
2023-04-03T17:32:42.000Z,412
2023-04-03T17:33:58.000Z,356
2023-04-03T17:35:14.000Z,348
2023-04-03T17:36:31.000Z,324
2023-04-03T17:37:47.000Z,284
2023-04-03T17:39:02.000Z,244
2023-04-03T17:40:18.000Z,212